sensor_id;sensor_type;location;lat;lon;timestamp;temperature;humidity
12847;DHT22;6492;48.128;8.320;2022-07-23T06:03:58;19.50;31.50
12847;DHT22;6492;48.128;8.320;2022-07-23T06:08:00;19.80;30.10
12847;DHT22;6492;48.128;8.320;2022-07-23T06:12:03;20.10;28.40
12847;DHT22;6492;48.128;8.320;2022-07-23T06:16:05;20.40;26.50
12847;DHT22;6492;48.128;8.320;2022-07-23T06:20:10;20.70;24.00
12847;DHT22;6492;48.128;8.320;2022-07-23T06:24:12;21.00;23.70
12847;DHT22;6492;48.128;8.320;2022-07-23T06:28:24;21.30;22.70
12847;DHT22;6492;48.128;8.320;2022-07-23T06:32:26;21.50;20.50
12847;DHT22;6492;48.128;8.320;2022-07-23T06:36:29;21.80;21.00
12847;DHT22;6492;48.128;8.320;2022-07-23T06:40:39;22.10;20.60
12847;DHT22;6492;48.128;8.320;2022-07-23T06:44:41;22.80;18.80
12847;DHT22;6492;48.128;8.320;2022-07-23T06:48:43;23.40;16.90
12847;DHT22;6492;48.128;8.320;2022-07-23T06:52:46;24.20;13.60
12847;DHT22;6492;48.128;8.320;2022-07-23T06:56:48;25.00;11.80
12847;DHT22;6492;48.128;8.320;2022-07-23T07:00:50;25.80;7.70
12847;DHT22;6492;48.128;8.320;2022-07-23T07:04:52;26.50;6.60
12847;DHT22;6492;48.128;8.320;2022-07-23T07:08:56;27.00;4.00
12847;DHT22;6492;48.128;8.320;2022-07-23T07:13:29;26.70;4.20
12847;DHT22;6492;48.128;8.320;2022-07-23T07:17:31;26.30;5.30
12847;DHT22;6492;48.128;8.320;2022-07-23T07:21:48;26.40;5.10
12847;DHT22;6492;48.128;8.320;2022-07-23T07:25:51;27.00;4.00
12847;DHT22;6492;48.128;8.320;2022-07-23T07:29:53;27.60;2.00
12847;DHT22;6492;48.128;8.320;2022-07-23T07:33:59;27.90;1.40
12847;DHT22;6492;48.128;8.320;2022-07-23T07:38:02;27.50;1.10
12847;DHT22;6492;48.128;8.320;2022-07-23T07:42:07;26.50;2.60
12847;DHT22;6492;48.128;8.320;2022-07-23T07:46:10;26.10;4.40
12847;DHT22;6492;48.128;8.320;2022-07-23T07:50:13;25.70;5.40
12847;DHT22;6492;48.128;8.320;2022-07-23T07:54:15;25.10;5.80
12847;DHT22;6492;48.128;8.320;2022-07-23T07:58:19;24.60;7.30
12847;DHT22;6492;48.128;8.320;2022-07-23T08:02:21;24.10;8.60
12847;DHT22;6492;48.128;8.320;2022-07-23T08:06:23;24.00;8.80
12847;DHT22;6492;48.128;8.320;2022-07-23T08:10:28;23.80;9.00
12847;DHT22;6492;48.128;8.320;2022-07-23T08:14:33;23.70;9.70
12847;DHT22;6492;48.128;8.320;2022-07-23T08:18:34;23.70;9.00
12847;DHT22;6492;48.128;8.320;2022-07-23T08:22:44;24.20;9.20
12847;DHT22;6492;48.128;8.320;2022-07-23T08:26:46;24.90;7.20
12847;DHT22;6492;48.128;8.320;2022-07-23T08:31:23;24.90;6.20
12847;DHT22;6492;48.128;8.320;2022-07-23T08:35:32;25.00;6.50
12847;DHT22;6492;48.128;8.320;2022-07-23T08:39:34;25.00;6.90
12847;DHT22;6492;48.128;8.320;2022-07-23T08:43:36;25.20;5.80
12847;DHT22;6492;48.128;8.320;2022-07-23T08:47:40;25.90;4.60
12847;DHT22;6492;48.128;8.320;2022-07-23T08:51:52;26.40;3.40
12847;DHT22;6492;48.128;8.320;2022-07-23T08:55:57;26.70;2.30
12847;DHT22;6492;48.128;8.320;2022-07-23T09:00:06;26.60;2.10
12847;DHT22;6492;48.128;8.320;2022-07-23T09:04:13;26.20;3.20
12847;DHT22;6492;48.128;8.320;2022-07-23T09:08:16;25.80;3.50
12847;DHT22;6492;48.128;8.320;2022-07-23T09:12:26;25.50;4.10
12847;DHT22;6492;48.128;8.320;2022-07-23T09:16:31;25.40;4.90
12847;DHT22;6492;48.128;8.320;2022-07-23T09:20:34;25.50;5.50
12847;DHT22;6492;48.128;8.320;2022-07-23T09:25:03;25.90;4.00
12847;DHT22;6492;48.128;8.320;2022-07-23T09:29:07;26.40;2.10
12847;DHT22;6492;48.128;8.320;2022-07-23T09:33:10;26.40;3.90
12847;DHT22;6492;48.128;8.320;2022-07-23T09:37:15;27.10;1.70
12847;DHT22;6492;48.128;8.320;2022-07-23T09:41:17;27.60;1.10
12847;DHT22;6492;48.128;8.320;2022-07-23T09:45:19;27.90;1.00
12847;DHT22;6492;48.128;8.320;2022-07-23T09:49:22;28.00;1.00
12847;DHT22;6492;48.128;8.320;2022-07-23T09:53:27;28.50;1.00
12847;DHT22;6492;48.128;8.320;2022-07-23T09:57:28;28.70;1.00
12847;DHT22;6492;48.128;8.320;2022-07-23T10:01:31;28.80;1.00
12847;DHT22;6492;48.128;8.320;2022-07-23T10:05:34;28.90;1.00
12847;DHT22;6492;48.128;8.320;2022-07-23T10:09:39;29.10;1.00
12847;DHT22;6492;48.128;8.320;2022-07-23T10:13:44;29.30;1.00
12847;DHT22;6492;48.128;8.320;2022-07-23T10:17:55;28.90;1.00
12847;DHT22;6492;48.128;8.320;2022-07-23T10:21:58;28.30;1.00
12847;DHT22;6492;48.128;8.320;2022-07-23T10:26:11;28.10;1.00
12847;DHT22;6492;48.128;8.320;2022-07-23T10:30:20;28.40;1.00
12847;DHT22;6492;48.128;8.320;2022-07-23T10:34:33;28.30;1.00
12847;DHT22;6492;48.128;8.320;2022-07-23T10:38:42;28.10;1.00
12847;DHT22;6492;48.128;8.320;2022-07-23T10:43:13;27.70;1.00
12847;DHT22;6492;48.128;8.320;2022-07-23T10:47:26;27.70;1.00
12847;DHT22;6492;48.128;8.320;2022-07-23T10:56:02;28.20;1.00
12847;DHT22;6492;48.128;8.320;2022-07-23T11:00:19;28.30;1.00
12847;DHT22;6492;48.128;8.320;2022-07-23T11:04:48;28.10;1.00
12847;DHT22;6492;48.128;8.320;2022-07-23T11:13:30;27.80;1.00
12847;DHT22;6492;48.128;8.320;2022-07-23T11:18:00;27.60;1.00
12847;DHT22;6492;48.128;8.320;2022-07-23T11:22:02;27.40;1.00
12847;DHT22;6492;48.128;8.320;2022-07-23T11:26:05;27.60;1.00
12847;DHT22;6492;48.128;8.320;2022-07-23T11:30:07;28.20;1.00
12847;DHT22;6492;48.128;8.320;2022-07-23T11:34:35;28.60;1.00
12847;DHT22;6492;48.128;8.320;2022-07-23T11:38:38;28.50;1.00
12847;DHT22;6492;48.128;8.320;2022-07-23T11:42:51;28.40;1.00
12847;DHT22;6492;48.128;8.320;2022-07-23T11:46:55;28.40;1.00
12847;DHT22;6492;48.128;8.320;2022-07-23T11:50:59;28.90;1.00
12847;DHT22;6492;48.128;8.320;2022-07-23T11:55:03;29.40;1.00
12847;DHT22;6492;48.128;8.320;2022-07-23T11:59:05;29.60;1.00
12847;DHT22;6492;48.128;8.320;2022-07-23T12:03:07;29.50;1.00
12847;DHT22;6492;48.128;8.320;2022-07-23T12:07:27;29.70;1.00
12847;DHT22;6492;48.128;8.320;2022-07-23T12:11:30;29.70;1.00
12847;DHT22;6492;48.128;8.320;2022-07-23T12:15:33;30.20;1.00
12847;DHT22;6492;48.128;8.320;2022-07-23T12:19:38;30.30;1.00
12847;DHT22;6492;48.128;8.320;2022-07-23T12:23:42;30.50;1.00
12847;DHT22;6492;48.128;8.320;2022-07-23T12:27:44;30.30;1.00
12847;DHT22;6492;48.128;8.320;2022-07-23T12:31:46;30.00;1.00
12847;DHT22;6492;48.128;8.320;2022-07-23T12:35:48;30.20;1.00
12847;DHT22;6492;48.128;8.320;2022-07-23T12:39:52;30.70;1.00
12847;DHT22;6492;48.128;8.320;2022-07-23T12:43:54;30.40;1.00
12847;DHT22;6492;48.128;8.320;2022-07-23T12:48:01;29.90;1.00
12847;DHT22;6492;48.128;8.320;2022-07-23T12:52:15;29.50;1.00
12847;DHT22;6492;48.128;8.320;2022-07-23T12:56:20;29.40;1.00
12847;DHT22;6492;48.128;8.320;2022-07-23T13:00:22;28.90;1.00
12847;DHT22;6492;48.128;8.320;2022-07-23T13:04:39;29.20;1.00
12847;DHT22;6492;48.128;8.320;2022-07-23T13:08:41;29.30;1.00
12847;DHT22;6492;48.128;8.320;2022-07-23T13:12:44;29.30;1.00
12847;DHT22;6492;48.128;8.320;2022-07-23T13:16:47;30.20;1.00
12847;DHT22;6492;48.128;8.320;2022-07-23T13:20:49;31.10;1.00
12847;DHT22;6492;48.128;8.320;2022-07-23T13:24:51;31.30;1.00
12847;DHT22;6492;48.128;8.320;2022-07-23T13:28:54;31.30;1.00
12847;DHT22;6492;48.128;8.320;2022-07-23T13:32:56;31.90;1.00
12847;DHT22;6492;48.128;8.320;2022-07-23T13:36:58;32.50;1.00
12847;DHT22;6492;48.128;8.320;2022-07-23T13:41:00;32.20;1.00
12847;DHT22;6492;48.128;8.320;2022-07-23T13:45:06;32.40;1.00
12847;DHT22;6492;48.128;8.320;2022-07-23T13:49:08;32.30;1.00
12847;DHT22;6492;48.128;8.320;2022-07-23T13:53:12;32.10;1.00
12847;DHT22;6492;48.128;8.320;2022-07-23T13:57:14;31.60;1.00
12847;DHT22;6492;48.128;8.320;2022-07-23T14:01:17;31.70;1.00
12847;DHT22;6492;48.128;8.320;2022-07-23T14:05:19;31.60;1.00
12847;DHT22;6492;48.128;8.320;2022-07-23T14:09:22;30.80;1.00
12847;DHT22;6492;48.128;8.320;2022-07-23T14:13:24;30.50;1.00
12847;DHT22;6492;48.128;8.320;2022-07-23T14:17:27;30.60;1.00
12847;DHT22;6492;48.128;8.320;2022-07-23T14:21:29;30.20;1.00
12847;DHT22;6492;48.128;8.320;2022-07-23T14:25:31;29.90;1.00
12847;DHT22;6492;48.128;8.320;2022-07-23T14:29:33;29.70;1.00
12847;DHT22;6492;48.128;8.320;2022-07-23T14:33:37;29.30;1.00
12847;DHT22;6492;48.128;8.320;2022-07-23T14:37:39;28.90;1.00
12847;DHT22;6492;48.128;8.320;2022-07-23T14:41:41;28.90;1.00
12847;DHT22;6492;48.128;8.320;2022-07-23T14:45:43;29.30;1.00
12847;DHT22;6492;48.128;8.320;2022-07-23T14:49:48;29.70;1.00
12847;DHT22;6492;48.128;8.320;2022-07-23T14:53:50;29.90;1.00
12847;DHT22;6492;48.128;8.320;2022-07-23T14:57:52;30.00;1.00
12847;DHT22;6492;48.128;8.320;2022-07-23T15:01:54;30.20;1.00
12847;DHT22;6492;48.128;8.320;2022-07-23T15:05:57;30.50;1.00
12847;DHT22;6492;48.128;8.320;2022-07-23T15:09:58;30.90;1.00
12847;DHT22;6492;48.128;8.320;2022-07-23T15:14:01;30.70;1.00
12847;DHT22;6492;48.128;8.320;2022-07-23T15:18:03;29.90;1.00
12847;DHT22;6492;48.128;8.320;2022-07-23T15:22:22;29.10;1.00
12847;DHT22;6492;48.128;8.320;2022-07-23T15:26:24;29.00;1.00
12847;DHT22;6492;48.128;8.320;2022-07-23T15:30:27;29.00;1.00
12847;DHT22;6492;48.128;8.320;2022-07-23T15:34:29;28.80;1.00
12847;DHT22;6492;48.128;8.320;2022-07-23T15:38:32;28.20;1.00
12847;DHT22;6492;48.128;8.320;2022-07-23T15:42:35;27.60;1.00
12847;DHT22;6492;48.128;8.320;2022-07-23T15:46:37;27.00;1.00
12847;DHT22;6492;48.128;8.320;2022-07-23T15:50:39;26.80;1.00
12847;DHT22;6492;48.128;8.320;2022-07-23T15:54:43;27.20;1.00
12847;DHT22;6492;48.128;8.320;2022-07-23T15:58:45;27.40;1.00
12847;DHT22;6492;48.128;8.320;2022-07-23T16:02:46;27.10;1.00
12847;DHT22;6492;48.128;8.320;2022-07-23T16:06:48;26.90;1.00
12847;DHT22;6492;48.128;8.320;2022-07-23T16:10:52;26.80;1.00
12847;DHT22;6492;48.128;8.320;2022-07-23T16:14:57;26.70;1.00
12847;DHT22;6492;48.128;8.320;2022-07-23T16:18:59;27.10;1.00
12847;DHT22;6492;48.128;8.320;2022-07-23T16:23:01;27.60;1.00
12847;DHT22;6492;48.128;8.320;2022-07-23T16:27:04;27.90;1.00
12847;DHT22;6492;48.128;8.320;2022-07-23T16:31:06;28.20;1.00
12847;DHT22;6492;48.128;8.320;2022-07-23T16:35:08;28.10;1.00
12847;DHT22;6492;48.128;8.320;2022-07-23T16:39:10;28.00;1.00
12847;DHT22;6492;48.128;8.320;2022-07-23T16:43:13;28.20;1.00
12847;DHT22;6492;48.128;8.320;2022-07-23T16:47:15;28.40;1.00
12847;DHT22;6492;48.128;8.320;2022-07-23T16:51:20;28.30;1.00
12847;DHT22;6492;48.128;8.320;2022-07-23T16:55:22;28.20;1.00
12847;DHT22;6492;48.128;8.320;2022-07-23T16:59:25;28.10;1.00
12847;DHT22;6492;48.128;8.320;2022-07-23T17:03:27;28.00;1.00
12847;DHT22;6492;48.128;8.320;2022-07-23T17:07:29;27.80;1.00
12847;DHT22;6492;48.128;8.320;2022-07-23T17:11:31;27.70;1.00
12847;DHT22;6492;48.128;8.320;2022-07-23T17:15:35;27.70;1.00
12847;DHT22;6492;48.128;8.320;2022-07-23T17:19:36;27.50;1.00
12847;DHT22;6492;48.128;8.320;2022-07-23T17:23:42;27.30;1.00
12847;DHT22;6492;48.128;8.320;2022-07-23T17:27:45;27.00;1.00
12847;DHT22;6492;48.128;8.320;2022-07-23T17:31:48;26.70;1.00
12847;DHT22;6492;48.128;8.320;2022-07-23T17:35:50;26.70;1.00
12847;DHT22;6492;48.128;8.320;2022-07-23T17:39:55;26.70;1.00
12847;DHT22;6492;48.128;8.320;2022-07-23T17:43:57;26.50;1.00
12847;DHT22;6492;48.128;8.320;2022-07-23T17:48:01;26.40;1.00
12847;DHT22;6492;48.128;8.320;2022-07-23T17:52:04;26.40;1.00
12847;DHT22;6492;48.128;8.320;2022-07-23T17:56:07;26.30;1.00
12847;DHT22;6492;48.128;8.320;2022-07-23T18:00:11;26.00;1.00
12847;DHT22;6492;48.128;8.320;2022-07-23T18:04:15;25.70;1.00
12847;DHT22;6492;48.128;8.320;2022-07-23T18:08:17;25.40;1.00
12847;DHT22;6492;48.128;8.320;2022-07-23T18:12:19;25.20;1.00
12847;DHT22;6492;48.128;8.320;2022-07-23T18:16:20;25.10;1.10
12847;DHT22;6492;48.128;8.320;2022-07-23T18:20:24;24.90;1.50
12847;DHT22;6492;48.128;8.320;2022-07-23T18:24:26;24.70;1.80
12847;DHT22;6492;48.128;8.320;2022-07-23T18:28:28;24.50;2.70
12847;DHT22;6492;48.128;8.320;2022-07-23T18:32:31;24.20;3.20
12847;DHT22;6492;48.128;8.320;2022-07-23T18:36:34;23.80;3.90
12847;DHT22;6492;48.128;8.320;2022-07-23T18:40:36;23.40;4.80
12847;DHT22;6492;48.128;8.320;2022-07-23T18:44:39;23.10;6.10
12847;DHT22;6492;48.128;8.320;2022-07-23T18:48:41;22.70;6.80
12847;DHT22;6492;48.128;8.320;2022-07-23T18:52:44;22.40;7.80
12847;DHT22;6492;48.128;8.320;2022-07-23T18:56:47;22.00;9.10
12847;DHT22;6492;48.128;8.320;2022-07-23T19:00:49;21.70;10.20
12847;DHT22;6492;48.128;8.320;2022-07-23T19:05:08;21.50;11.00
12847;DHT22;6492;48.128;8.320;2022-07-23T19:09:11;21.20;11.80
12847;DHT22;6492;48.128;8.320;2022-07-23T19:13:14;21.00;12.60
12847;DHT22;6492;48.128;8.320;2022-07-23T19:17:15;20.70;13.50
12847;DHT22;6492;48.128;8.320;2022-07-23T19:21:21;20.60;14.20
12847;DHT22;6492;48.128;8.320;2022-07-23T19:25:24;20.40;14.70
12847;DHT22;6492;48.128;8.320;2022-07-23T19:29:32;20.10;15.60
12847;DHT22;6492;48.128;8.320;2022-07-23T19:33:56;19.90;16.30
12847;DHT22;6492;48.128;8.320;2022-07-23T19:48:59;19.30;18.40
12847;DHT22;6492;48.128;8.320;2022-07-23T19:58:33;18.50;19.30
12847;DHT22;6492;48.128;8.320;2022-07-23T20:03:30;18.90;21.40
12847;DHT22;6492;48.128;8.320;2022-07-23T20:07:43;18.80;22.00
12847;DHT22;6492;48.128;8.320;2022-07-23T20:12:27;18.60;22.90
12847;DHT22;6492;48.128;8.320;2022-07-23T20:21:07;18.20;23.80
12847;DHT22;6492;48.128;8.320;2022-07-23T20:29:33;18.00;26.00
